Time;durP1;ratioP1;P1;durP2;ratioP2;P2;SDS_P1;SDS_P2;PMS_P1;PMS_P2;Temp;Humidity;BMP_temperature;BMP_pressure;BME280_temperature;BME280_humidity;BME280_pressure;Samples;Min_cycle;Max_cycle;Signal;HPM_P1;HPM_P2
2021/01/11 00:00:22;;;;;;;16.67;6.47;;;16.80;59.00;;;;;;1048690;28;20020;-71
2021/01/11 00:00:53;;;;;;;20.45;6.10;;;16.80;59.00;;;;;;1047329;28;20015;-70
2021/01/11 00:01:26;;;;;;;15.20;5.72;;;16.70;58.90;;;;;;1045757;28;20059;-70
2021/01/11 00:01:59;;;;;;;16.98;5.97;;;16.80;59.10;;;;;;1044658;28;20009;-70
2021/01/11 00:02:30;;;;;;;13.70;5.78;;;16.70;59.00;;;;;;1040284;28;20024;-71
2021/01/11 00:03:02;;;;;;;13.93;5.45;;;16.70;59.00;;;;;;1040858;28;20477;-71
2021/01/11 00:03:33;;;;;;;15.32;5.43;;;16.70;59.10;;;;;;1041958;28;20011;-71
2021/01/11 00:04:05;;;;;;;17.10;5.70;;;16.80;59.30;;;;;;1044977;28;20028;-70
2021/01/11 00:04:36;;;;;;;12.15;5.38;;;16.80;59.40;;;;;;1041940;28;20101;-70
2021/01/11 00:05:08;;;;;;;16.92;5.85;;;16.80;59.30;;;;;;1045834;28;20009;-70
2021/01/11 00:05:39;;;;;;;17.30;6.22;;;16.80;59.30;;;;;;1045224;28;20043;-73
2021/01/11 00:06:11;;;;;;;14.93;5.70;;;16.80;59.20;;;;;;1046806;28;20009;-71
2021/01/11 00:06:44;;;;;;;14.05;6.28;;;16.80;59.10;;;;;;1047031;28;20059;-73
2021/01/11 00:07:15;;;;;;;16.75;6.18;;;16.80;59.10;;;;;;1044286;28;20454;-72
2021/01/11 00:07:47;;;;;;;14.77;6.00;;;16.80;59.10;;;;;;1043751;28;20013;-72
2021/01/11 00:08:18;;;;;;;19.48;6.40;;;16.80;59.10;;;;;;1044229;28;20328;-71
2021/01/11 00:08:50;;;;;;;14.75;6.40;;;16.80;59.10;;;;;;1042673;28;20013;-71
2021/01/11 00:09:24;;;;;;;17.00;6.05;;;16.80;59.10;;;;;;1045642;28;20013;-71
2021/01/11 00:09:56;;;;;;;16.42;6.15;;;16.80;59.10;;;;;;1037982;28;20072;-71
2021/01/11 00:10:27;;;;;;;15.32;6.20;;;16.80;59.20;;;;;;1037437;28;20014;-70
2021/01/11 00:10:58;;;;;;;16.80;6.25;;;16.80;59.40;;;;;;1040765;28;20108;-71
2021/01/11 00:11:32;;;;;;;16.75;6.13;;;16.70;59.50;;;;;;1045835;28;20024;-71
2021/01/11 00:12:04;;;;;;;15.18;6.25;;;16.80;59.60;;;;;;1046126;28;20008;-71
2021/01/11 00:12:43;;;;;;;13.82;6.32;;;16.80;59.60;;;;;;1043933;28;20005;-71
2021/01/11 00:13:14;;;;;;;14.30;6.07;;;16.80;59.60;;;;;;1042309;28;20451;-71
2021/01/11 00:13:46;;;;;;;14.95;6.00;;;16.80;59.70;;;;;;1042953;28;20009;-70
2021/01/11 00:14:17;;;;;;;16.60;6.05;;;16.80;59.80;;;;;;1043604;28;20029;-71
2021/01/11 00:14:49;;;;;;;14.52;5.93;;;16.70;59.90;;;;;;1044140;28;20025;-71
2021/01/11 00:15:20;;;;;;;15.48;5.80;;;16.70;60.00;;;;;;1043504;28;20009;-72
2021/01/11 00:15:51;;;;;;;16.23;6.55;;;16.70;60.20;;;;;;1044280;28;20025;-71
2021/01/11 00:16:23;;;;;;;14.55;5.95;;;16.70;60.30;;;;;;1044944;28;20013;-71
2021/01/11 00:16:54;;;;;;;16.25;6.28;;;16.70;60.40;;;;;;1044076;28;20496;-71
2021/01/11 00:17:26;;;;;;;15.32;6.10;;;16.70;60.40;;;;;;1044347;28;20024;-71
2021/01/11 00:17:57;;;;;;;17.52;6.60;;;16.70;60.40;;;;;;1044229;28;20082;-71
2021/01/11 00:18:28;;;;;;;17.20;6.97;;;16.70;60.40;;;;;;1044505;28;20405;-71
2021/01/11 00:19:01;;;;;;;20.15;7.20;;;16.80;60.50;;;;;;1047042;28;20069;-72
2021/01/11 00:19:32;;;;;;;14.75;6.75;;;16.80;60.60;;;;;;1048288;28;20319;-72
2021/01/11 00:20:08;;;;;;;18.60;6.85;;;16.70;60.70;;;;;;1043940;28;20037;-71
2021/01/11 00:20:39;;;;;;;17.95;6.50;;;16.70;60.80;;;;;;1043139;28;20442;-71
2021/01/11 00:21:15;;;;;;;14.75;6.45;;;16.70;60.90;;;;;;1044034;28;20032;-71
2021/01/11 00:21:47;;;;;;;15.15;6.13;;;16.70;61.10;;;;;;1042853;28;20435;-71
2021/01/11 00:22:20;;;;;;;15.18;6.10;;;16.70;61.20;;;;;;1042274;28;20039;-72
2021/01/11 00:22:51;;;;;;;15.23;6.88;;;16.70;61.20;;;;;;1043639;28;20017;-71
2021/01/11 00:23:22;;;;;;;16.17;6.53;;;16.70;61.30;;;;;;1044610;28;20013;-71
2021/01/11 00:23:54;;;;;;;14.73;7.13;;;16.70;61.30;;;;;;1042205;28;20029;-72
2021/01/11 00:24:26;;;;;;;22.38;7.55;;;16.70;61.20;;;;;;1044775;28;20096;-71
2021/01/11 00:24:57;;;;;;;18.38;7.22;;;16.70;61.20;;;;;;1043743;28;20509;-71
2021/01/11 00:25:29;;;;;;;17.23;7.63;;;16.70;61.20;;;;;;1043693;28;20358;-70
2021/01/11 00:26:00;;;;;;;17.17;7.63;;;16.70;61.20;;;;;;1045794;28;20118;-71
2021/01/11 00:26:31;;;;;;;18.58;7.72;;;16.70;61.20;;;;;;1048469;28;20017;-72
2021/01/11 00:27:03;;;;;;;20.45;7.55;;;16.70;61.30;;;;;;1047664;28;20036;-71
2021/01/11 00:27:34;;;;;;;17.05;7.28;;;16.70;61.30;;;;;;1047496;28;20111;-72
2021/01/11 00:28:06;;;;;;;17.00;6.93;;;16.70;61.30;;;;;;1040547;28;20071;-72
2021/01/11 00:28:40;;;;;;;17.80;7.05;;;16.70;61.40;;;;;;1040586;28;20014;-71
2021/01/11 00:29:11;;;;;;;17.70;7.03;;;16.60;61.40;;;;;;1043079;28;20025;-72
2021/01/11 00:29:43;;;;;;;16.67;7.00;;;16.60;61.40;;;;;;1043017;28;20454;-72
2021/01/11 00:30:15;;;;;;;17.02;7.40;;;16.60;61.50;;;;;;1044011;28;20025;-72
2021/01/11 00:30:46;;;;;;;17.75;7.07;;;16.60;61.60;;;;;;1044608;28;20426;-72
2021/01/11 00:31:25;;;;;;;19.63;6.78;;;16.60;61.60;;;;;;1044646;28;20083;-73
2021/01/11 00:31:57;;;;;;;15.48;6.97;;;16.60;61.50;;;;;;1040144;28;20124;-73
2021/01/11 00:32:33;;;;;;;16.63;7.60;;;16.60;61.60;;;;;;1036215;28;20029;-72
2021/01/11 00:33:05;;;;;;;18.73;7.10;;;16.60;61.70;;;;;;1036132;28;20021;-72
2021/01/11 00:33:36;;;;;;;19.92;7.63;;;16.60;61.80;;;;;;1032101;28;20117;-72
2021/01/11 00:34:08;;;;;;;16.77;7.32;;;16.60;62.00;;;;;;1036000;28;20341;-72
2021/01/11 00:34:39;;;;;;;19.38;8.10;;;16.60;62.00;;;;;;1036777;28;20011;-73
2021/01/11 00:35:11;;;;;;;17.92;7.80;;;16.60;62.00;;;;;;1042295;28;20049;-73
2021/01/11 00:35:42;;;;;;;17.83;7.57;;;16.60;62.10;;;;;;1047392;28;20047;-73
2021/01/11 00:36:14;;;;;;;19.45;7.47;;;16.60;62.40;;;;;;1048672;28;20021;-72
2021/01/11 00:36:50;;;;;;;15.27;6.72;;;16.60;62.20;;;;;;1047212;28;20021;-72
2021/01/11 00:37:22;;;;;;;15.63;6.95;;;16.60;62.10;;;;;;1044655;28;20108;-72
2021/01/11 00:37:53;;;;;;;16.88;7.22;;;16.50;62.00;;;;;;1043919;28;20021;-72
2021/01/11 00:38:24;;;;;;;17.52;7.03;;;16.50;62.00;;;;;;1044406;28;20017;-72
2021/01/11 00:38:56;;;;;;;21.17;7.40;;;16.50;61.90;;;;;;1039857;28;20091;-71
2021/01/11 00:39:28;;;;;;;16.67;7.30;;;16.50;61.80;;;;;;1040866;28;20021;-72
2021/01/11 00:39:59;;;;;;;18.38;8.15;;;16.50;61.80;;;;;;1041956;28;20021;-72
2021/01/11 00:40:31;;;;;;;19.45;7.72;;;16.50;61.80;;;;;;1041689;28;20433;-72
2021/01/11 00:41:02;;;;;;;19.15;8.15;;;16.50;61.70;;;;;;1047607;28;20103;-71
2021/01/11 00:41:33;;;;;;;16.45;7.50;;;16.50;61.80;;;;;;1048425;28;20465;-71
2021/01/11 00:42:05;;;;;;;17.63;7.93;;;16.50;61.80;;;;;;1045312;28;20100;-71
2021/01/11 00:42:37;;;;;;;16.48;7.63;;;16.50;61.90;;;;;;1045368;28;20013;-71
2021/01/11 00:43:10;;;;;;;15.90;7.93;;;16.50;62.00;;;;;;1048272;28;20024;-71
2021/01/11 00:43:41;;;;;;;18.05;7.47;;;16.50;62.00;;;;;;1044053;28;20048;-71
2021/01/11 00:44:13;;;;;;;18.40;7.82;;;16.50;62.00;;;;;;1043563;28;20489;-71
2021/01/11 00:44:44;;;;;;;18.48;8.35;;;16.50;62.00;;;;;;1045118;28;20031;-71
2021/01/11 00:45:15;;;;;;;16.20;7.68;;;16.50;61.90;;;;;;1045270;28;20017;-71
2021/01/11 00:45:47;;;;;;;18.05;7.95;;;16.50;61.90;;;;;;1043937;28;20017;-71
2021/01/11 00:46:26;;;;;;;17.88;7.75;;;16.50;62.00;;;;;;1043592;28;20025;-71
2021/01/11 00:47:02;;;;;;;18.20;7.60;;;16.50;62.00;;;;;;1046804;28;20083;-71
2021/01/11 00:47:41;;;;;;;17.08;8.30;;;16.50;62.00;;;;;;1049228;28;20024;-72
2021/01/11 00:48:12;;;;;;;15.63;7.60;;;16.40;61.90;;;;;;1045882;28;20568;-71
2021/01/11 00:48:44;;;;;;;17.13;8.00;;;16.40;61.90;;;;;;1044551;28;20028;-71
2021/01/11 00:49:15;;;;;;;18.17;8.25;;;16.40;62.00;;;;;;1041908;28;20114;-71
2021/01/11 00:49:47;;;;;;;19.77;8.43;;;16.40;62.00;;;;;;1041834;28;20462;-71
2021/01/11 00:50:18;;;;;;;15.43;8.02;;;16.40;62.00;;;;;;1042804;28;20057;-72
2021/01/11 00:50:50;;;;;;;15.82;7.93;;;16.40;62.10;;;;;;1044130;28;20032;-71
2021/01/11 00:51:21;;;;;;;16.77;7.55;;;16.40;62.00;;;;;;1042246;28;20348;-71
2021/01/11 00:51:53;;;;;;;16.15;7.47;;;16.40;62.10;;;;;;1038970;28;20030;-71
2021/01/11 00:52:24;;;;;;;18.80;7.22;;;16.40;62.00;;;;;;1039307;28;20032;-71
2021/01/11 00:52:56;;;;;;;16.23;7.78;;;16.40;62.10;;;;;;1042247;28;20211;-71
2021/01/11 00:53:27;;;;;;;17.15;8.40;;;16.40;62.00;;;;;;1042225;28;20036;-71
2021/01/11 00:53:59;;;;;;;16.65;8.07;;;16.40;62.10;;;;;;1043192;28;20029;-73
2021/01/11 00:54:30;;;;;;;17.60;8.18;;;16.40;62.10;;;;;;1044855;28;20009;-71
2021/01/11 00:55:03;;;;;;;15.65;8.20;;;16.40;62.10;;;;;;1043382;28;20017;-71
2021/01/11 00:55:34;;;;;;;14.70;7.70;;;16.40;62.10;;;;;;1043673;28;20335;-71
2021/01/11 00:56:06;;;;;;;17.75;8.32;;;16.40;62.10;;;;;;1043045;28;20397;-71
2021/01/11 00:56:37;;;;;;;17.13;8.10;;;16.40;62.20;;;;;;1045424;28;20364;-71
2021/01/11 00:57:09;;;;;;;17.85;7.88;;;16.40;62.20;;;;;;1044873;28;20045;-71
2021/01/11 00:57:42;;;;;;;16.50;7.43;;;16.40;62.10;;;;;;1042622;28;20055;-71
2021/01/11 00:58:14;;;;;;;17.38;7.57;;;16.40;62.20;;;;;;1041335;28;20048;-71
2021/01/11 00:58:46;;;;;;;15.52;7.65;;;16.40;62.20;;;;;;1041416;28;20458;-71
2021/01/11 00:59:20;;;;;;;16.85;7.75;;;16.40;62.10;;;;;;1041380;28;20028;-71
2021/01/11 00:59:51;;;;;;;16.58;7.40;;;16.40;62.10;;;;;;1042689;28;20052;-72
2021/01/11 01:00:24;;;;;;;21.52;8.90;;;16.40;62.10;;;;;;1042878;28;20021;-71
2021/01/11 01:00:55;;;;;;;17.88;8.05;;;16.40;62.10;;;;;;1042471;28;20024;-71
2021/01/11 01:01:27;;;;;;;20.02;7.93;;;16.40;62.10;;;;;;1043611;28;20017;-71
2021/01/11 01:01:58;;;;;;;16.80;8.20;;;16.40;62.10;;;;;;1040619;28;20065;-72
2021/01/11 01:02:29;;;;;;;16.13;7.82;;;16.30;62.10;;;;;;1043010;28;20021;-71
2021/01/11 01:03:01;;;;;;;19.70;8.88;;;16.30;62.10;;;;;;1042588;28;20351;-71
2021/01/11 01:03:33;;;;;;;16.73;8.65;;;16.30;62.20;;;;;;1043717;28;20336;-72
2021/01/11 01:04:05;;;;;;;17.48;8.27;;;16.30;62.30;;;;;;1042423;28;20053;-72
2021/01/11 01:04:37;;;;;;;17.25;8.68;;;16.30;62.40;;;;;;1044635;28;20442;-72
2021/01/11 01:05:10;;;;;;;20.77;8.32;;;16.30;62.40;;;;;;1045295;28;20063;-72
2021/01/11 01:05:41;;;;;;;16.75;7.90;;;16.30;62.50;;;;;;1044159;28;20067;-73
2021/01/11 01:06:13;;;;;;;15.05;7.95;;;16.30;62.50;;;;;;1042027;28;21587;-72
2021/01/11 01:06:45;;;;;;;17.90;8.15;;;16.30;62.50;;;;;;1044086;28;20458;-72
2021/01/11 01:07:17;;;;;;;16.17;7.97;;;16.30;62.50;;;;;;1044819;28;20446;-72
2021/01/11 01:07:48;;;;;;;17.35;8.48;;;16.30;62.40;;;;;;1041592;28;20017;-72
2021/01/11 01:08:20;;;;;;;14.77;7.47;;;16.20;62.40;;;;;;1043442;28;20028;-72
2021/01/11 01:08:51;;;;;;;16.13;7.60;;;16.30;62.40;;;;;;1042272;28;20096;-71
2021/01/11 01:09:22;;;;;;;15.25;8.13;;;16.20;62.30;;;;;;1043619;28;20021;-71
2021/01/11 01:09:54;;;;;;;18.50;8.38;;;16.30;62.40;;;;;;1042950;28;20056;-71
2021/01/11 01:10:25;;;;;;;16.92;8.35;;;16.30;62.50;;;;;;1046110;28;20074;-71
2021/01/11 01:10:57;;;;;;;19.42;8.43;;;16.20;62.30;;;;;;1044456;28;20025;-71
2021/01/11 01:11:29;;;;;;;18.52;8.95;;;16.20;62.40;;;;;;1044664;28;20493;-72
2021/01/11 01:12:01;;;;;;;16.92;8.68;;;16.20;62.40;;;;;;1042701;28;20096;-71
2021/01/11 01:12:33;;;;;;;19.42;8.93;;;16.20;62.40;;;;;;1044617;28;20017;-71
2021/01/11 01:13:04;;;;;;;17.25;8.55;;;16.20;62.40;;;;;;1039915;28;20505;-72
2021/01/11 01:13:35;;;;;;;19.00;8.68;;;16.20;62.40;;;;;;1039606;28;20021;-71
2021/01/11 01:14:08;;;;;;;19.67;8.68;;;16.20;62.50;;;;;;1040555;28;20018;-71
2021/01/11 01:14:39;;;;;;;16.65;7.35;;;16.20;62.50;;;;;;1045867;28;20009;-71
2021/01/11 01:15:11;;;;;;;15.30;8.02;;;16.20;62.50;;;;;;1044675;28;20017;-72
2021/01/11 01:15:42;;;;;;;17.67;8.23;;;16.20;62.50;;;;;;1043954;28;20025;-71
2021/01/11 01:16:14;;;;;;;16.65;7.95;;;16.10;62.50;;;;;;1044446;28;20429;-72
2021/01/11 01:16:45;;;;;;;16.88;8.70;;;16.20;62.50;;;;;;1044964;28;20043;-71
2021/01/11 01:17:17;;;;;;;16.85;8.23;;;16.20;62.50;;;;;;1046373;28;20074;-72
2021/01/11 01:17:48;;;;;;;19.42;8.88;;;16.20;62.50;;;;;;1045181;28;20009;-71
2021/01/11 01:18:19;;;;;;;18.08;8.32;;;16.10;62.50;;;;;;1041597;28;20021;-71
2021/01/11 01:18:51;;;;;;;21.77;8.73;;;16.20;62.70;;;;;;1040974;28;20104;-71
2021/01/11 01:19:22;;;;;;;17.88;9.02;;;16.10;63.30;;;;;;1036820;28;20101;-71
2021/01/11 01:19:53;;;;;;;17.10;8.43;;;16.10;62.80;;;;;;1038186;28;20453;-71
2021/01/11 01:20:25;;;;;;;15.38;8.15;;;16.10;62.80;;;;;;1045097;28;20340;-72
2021/01/11 01:20:56;;;;;;;17.15;8.27;;;16.10;62.60;;;;;;1044648;28;20040;-72
2021/01/11 01:21:28;;;;;;;17.50;8.18;;;16.10;62.50;;;;;;1049139;28;20511;-72
2021/01/11 01:22:00;;;;;;;16.80;7.95;;;16.10;62.60;;;;;;1047162;28;20091;-72
2021/01/11 01:22:31;;;;;;;14.73;8.10;;;16.10;62.80;;;;;;1045652;28;20070;-71
2021/01/11 01:23:03;;;;;;;15.73;8.13;;;16.00;62.90;;;;;;1041794;28;20092;-71
2021/01/11 01:23:34;;;;;;;14.38;7.28;;;16.10;62.90;;;;;;1044414;28;20048;-72
2021/01/11 01:24:06;;;;;;;17.88;7.85;;;16.10;62.90;;;;;;1044382;28;20025;-72
2021/01/11 01:24:37;;;;;;;16.88;8.50;;;16.10;62.90;;;;;;1040717;28;20459;-72
2021/01/11 01:25:09;;;;;;;15.60;7.78;;;16.00;63.00;;;;;;1036574;28;20029;-72
2021/01/11 01:25:41;;;;;;;16.23;7.95;;;16.00;63.10;;;;;;1039212;28;20029;-72
2021/01/11 01:26:12;;;;;;;17.98;8.70;;;16.00;63.00;;;;;;1037170;28;20024;-72
2021/01/11 01:26:44;;;;;;;16.27;8.20;;;16.00;63.00;;;;;;1045853;28;20009;-72
2021/01/11 01:27:15;;;;;;;18.35;8.50;;;16.00;63.00;;;;;;1048827;28;20008;-72
2021/01/11 01:27:46;;;;;;;16.90;7.93;;;16.00;63.00;;;;;;1044863;28;20437;-72
2021/01/11 01:28:18;;;;;;;19.13;7.65;;;16.00;63.00;;;;;;1043958;28;20032;-72
2021/01/11 01:28:50;;;;;;;16.67;8.23;;;16.00;63.00;;;;;;1046408;28;20350;-72
2021/01/11 01:29:21;;;;;;;19.33;8.25;;;16.00;63.00;;;;;;1049492;28;20346;-73
2021/01/11 01:29:52;;;;;;;17.13;7.93;;;16.00;63.00;;;;;;1046740;28;20016;-72
2021/01/11 01:30:24;;;;;;;16.38;7.60;;;16.00;63.20;;;;;;1046193;28;20008;-73
2021/01/11 01:30:56;;;;;;;15.30;7.28;;;16.00;63.20;;;;;;1044655;28;20021;-72
2021/01/11 01:31:27;;;;;;;17.13;7.72;;;16.00;63.30;;;;;;1040781;28;20022;-74
2021/01/11 01:31:58;;;;;;;15.23;7.47;;;15.90;63.40;;;;;;1040925;28;20020;-73
2021/01/11 01:32:30;;;;;;;16.75;7.07;;;15.90;63.50;;;;;;1042838;28;20045;-73
2021/01/11 01:33:01;;;;;;;15.68;6.90;;;15.90;63.50;;;;;;1044025;28;20485;-72
2021/01/11 01:33:32;;;;;;;14.43;6.60;;;15.90;63.60;;;;;;1043822;28;20032;-72
2021/01/11 01:34:04;;;;;;;18.80;7.22;;;15.90;63.60;;;;;;1044675;28;20446;-72
2021/01/11 01:34:35;;;;;;;15.43;6.90;;;15.90;63.70;;;;;;1042805;28;20066;-72
2021/01/11 01:35:07;;;;;;;17.55;7.35;;;15.90;63.70;;;;;;1044992;28;20092;-72
2021/01/11 01:35:39;;;;;;;16.23;7.15;;;15.90;63.70;;;;;;1043259;28;20018;-72
2021/01/11 01:36:10;;;;;;;16.20;6.80;;;15.80;63.90;;;;;;1044844;28;20025;-72
2021/01/11 01:36:42;;;;;;;17.42;6.82;;;15.80;64.00;;;;;;1044765;28;20075;-72
2021/01/11 01:37:13;;;;;;;15.25;7.05;;;15.80;64.10;;;;;;1041583;28;20045;-73
2021/01/11 01:37:45;;;;;;;16.75;6.82;;;15.80;64.20;;;;;;1037675;28;20018;-73
2021/01/11 01:38:17;;;;;;;17.83;7.10;;;15.70;64.20;;;;;;1037271;28;20112;-73
2021/01/11 01:38:48;;;;;;;13.68;6.53;;;15.70;64.90;;;;;;1040496;28;20093;-72
2021/01/11 01:39:19;;;;;;;16.08;6.72;;;15.70;64.20;;;;;;1046286;28;20005;-71
2021/01/11 01:39:51;;;;;;;15.63;6.60;;;15.70;64.20;;;;;;1043136;28;20013;-71
2021/01/11 01:40:23;;;;;;;12.50;6.40;;;15.70;64.40;;;;;;1044208;28;20462;-73
2021/01/11 01:40:55;;;;;;;16.67;6.72;;;15.60;64.40;;;;;;1045460;28;20013;-73
2021/01/11 01:41:26;;;;;;;18.17;6.72;;;15.50;64.60;;;;;;1045132;28;20454;-73
2021/01/11 01:41:58;;;;;;;15.23;6.72;;;15.50;64.70;;;;;;1041241;28;20498;-72
2021/01/11 01:42:29;;;;;;;14.55;6.88;;;15.50;64.90;;;;;;1041486;28;20025;-72
2021/01/11 01:43:00;;;;;;;15.45;7.15;;;15.50;64.90;;;;;;1044971;28;20507;-72
2021/01/11 01:43:32;;;;;;;15.55;7.00;;;15.50;65.00;;;;;;1044013;28;20017;-71
2021/01/11 01:44:03;;;;;;;16.40;7.38;;;15.50;65.10;;;;;;1041328;28;20025;-72
2021/01/11 01:44:35;;;;;;;15.18;6.43;;;15.50;65.10;;;;;;1039513;28;20053;-71
2021/01/11 01:45:07;;;;;;;20.50;8.52;;;15.50;65.20;;;;;;1042184;28;20021;-73
2021/01/11 01:45:40;;;;;;;16.77;7.97;;;15.50;65.20;;;;;;1044081;28;20028;-72
2021/01/11 01:46:21;;;;;;;15.40;7.40;;;15.50;65.20;;;;;;1045620;28;20025;-72
2021/01/11 01:46:53;;;;;;;17.02;7.50;;;15.40;65.30;;;;;;1043552;28;20418;-73
2021/01/11 01:47:25;;;;;;;16.80;7.60;;;15.40;65.40;;;;;;1044601;28;20024;-73
2021/01/11 01:47:57;;;;;;;17.40;7.45;;;15.40;65.50;;;;;;1039602;28;20017;-73
2021/01/11 01:48:28;;;;;;;17.13;7.90;;;15.40;65.60;;;;;;1038142;28;20029;-72
2021/01/11 01:49:00;;;;;;;15.45;6.90;;;15.40;65.70;;;;;;1041432;28;20025;-74
2021/01/11 01:49:32;;;;;;;13.15;6.97;;;15.30;66.40;;;;;;1042727;28;20467;-73
2021/01/11 01:50:06;;;;;;;17.63;7.18;;;15.30;65.80;;;;;;1045271;28;20025;-72
2021/01/11 01:50:39;;;;;;;17.08;7.18;;;15.30;65.90;;;;;;1044309;28;20158;-72
2021/01/11 01:51:12;;;;;;;16.40;7.05;;;15.20;65.90;;;;;;1044588;28;20017;-72
2021/01/11 01:51:43;;;;;;;16.80;7.32;;;15.20;65.90;;;;;;1045043;28;20350;-72
2021/01/11 01:52:14;;;;;;;16.58;7.10;;;15.30;66.00;;;;;;1049005;28;20044;-72
2021/01/11 01:52:46;;;;;;;14.30;6.60;;;15.30;66.10;;;;;;1044858;28;20048;-72
2021/01/11 01:53:17;;;;;;;17.33;6.90;;;15.30;66.10;;;;;;1044993;28;20059;-72
2021/01/11 01:53:49;;;;;;;17.23;7.05;;;15.30;66.10;;;;;;1040734;28;20028;-73
2021/01/11 01:54:20;;;;;;;16.55;7.20;;;15.20;66.10;;;;;;1038784;28;20021;-73
2021/01/11 01:54:52;;;;;;;15.57;6.82;;;15.20;66.10;;;;;;1040852;28;20044;-72
2021/01/11 01:55:24;;;;;;;12.93;6.53;;;15.20;66.10;;;;;;1040867;28;20363;-72
2021/01/11 01:55:56;;;;;;;15.95;6.95;;;15.20;66.10;;;;;;1043922;28;20090;-72
2021/01/11 01:56:27;;;;;;;14.45;6.90;;;15.20;66.10;;;;;;1040605;28;20067;-73
2021/01/11 01:56:59;;;;;;;15.52;7.43;;;15.20;66.10;;;;;;1040880;28;20022;-73
2021/01/11 01:57:32;;;;;;;16.08;7.22;;;15.20;66.00;;;;;;1041245;28;20111;-74
2021/01/11 01:58:05;;;;;;;18.55;7.55;;;15.20;66.00;;;;;;1043601;28;20069;-72
2021/01/11 01:58:38;;;;;;;16.83;7.25;;;15.30;66.10;;;;;;1043480;28;20033;-72
2021/01/11 01:59:10;;;;;;;19.30;7.68;;;15.30;66.00;;;;;;1048950;28;20024;-72
2021/01/11 01:59:48;;;;;;;19.70;7.57;;;15.30;66.00;;;;;;1040252;28;20053;-72
2021/01/11 02:00:20;;;;;;;15.95;7.13;;;15.30;65.90;;;;;;1045941;28;20564;-72
2021/01/11 02:00:51;;;;;;;18.13;7.00;;;15.30;65.90;;;;;;1049120;28;20457;-72
2021/01/11 02:01:23;;;;;;;15.57;7.00;;;15.30;65.80;;;;;;1047946;28;20016;-72
2021/01/11 02:01:59;;;;;;;22.67;7.40;;;15.30;65.80;;;;;;1045209;28;20013;-72
2021/01/11 02:02:31;;;;;;;17.88;7.40;;;15.30;65.70;;;;;;1043971;28;20078;-73
2021/01/11 02:03:02;;;;;;;14.90;7.03;;;15.30;65.70;;;;;;1043941;28;20036;-73
2021/01/11 02:03:34;;;;;;;16.40;6.88;;;15.30;65.80;;;;;;1044939;28;20017;-72
2021/01/11 02:04:05;;;;;;;15.80;7.07;;;15.30;65.80;;;;;;1042975;28;20016;-73
2021/01/11 02:04:37;;;;;;;14.18;6.72;;;15.30;65.80;;;;;;1044877;28;20036;-73
2021/01/11 02:05:09;;;;;;;14.60;6.82;;;15.30;65.80;;;;;;1044064;28;20025;-73
2021/01/11 02:05:40;;;;;;;15.80;6.53;;;15.30;65.80;;;;;;1047310;28;20074;-74
2021/01/11 02:06:12;;;;;;;15.55;6.88;;;15.30;65.80;;;;;;1045056;28;20067;-73
2021/01/11 02:06:44;;;;;;;16.05;6.80;;;15.30;65.80;;;;;;1043131;28;20026;-73
2021/01/11 02:07:32;;;;;;;13.85;6.65;;;15.30;65.90;;;;;;1045219;28;20049;-73
2021/01/11 02:08:13;;;;;;;15.65;6.45;;;15.20;65.90;;;;;;1041079;28;20025;-72
2021/01/11 02:09:03;;;;;;;16.15;6.43;;;15.10;65.90;;;;;;1041728;28;20332;-73
2021/01/11 02:10:03;;;;;;;15.65;6.40;;;15.10;66.30;;;;;;1041061;28;20021;-72
2021/01/11 02:10:58;;;;;;;14.47;6.33;;;15.00;66.40;;;;;;1043186;28;20098;-71
2021/01/11 02:11:37;;;;;;;13.18;6.20;;;15.00;66.70;;;;;;1041657;28;20239;-72
2021/01/11 02:12:16;;;;;;;12.15;6.07;;;15.00;66.90;;;;;;1044812;28;20025;-71
2021/01/11 02:13:20;;;;;;;14.35;6.20;;;14.90;66.90;;;;;;1039600;28;20021;-72
2021/01/11 02:14:06;;;;;;;15.32;6.70;;;14.90;67.20;;;;;;1041252;28;20036;-72
2021/01/11 02:14:49;;;;;;;16.33;6.88;;;14.80;67.40;;;;;;1042290;28;20782;-72
2021/01/11 02:15:32;;;;;;;16.00;6.78;;;14.80;67.60;;;;;;1044663;28;20459;-72
2021/01/11 02:16:18;;;;;;;18.40;7.25;;;14.70;67.60;;;;;;1043544;28;20051;-72
2021/01/11 02:17:15;;;;;;;15.25;7.18;;;14.70;67.90;;;;;;1041827;28;20463;-72
2021/01/11 02:17:53;;;;;;;16.85;7.45;;;14.70;68.10;;;;;;1041549;28;20021;-71
2021/01/11 02:18:42;;;;;;;16.20;6.78;;;14.60;68.30;;;;;;1042359;28;20014;-72
2021/01/11 02:19:17;;;;;;;17.08;7.35;;;14.60;68.40;;;;;;1044351;28;20336;-72
2021/01/11 02:20:24;;;;;;;17.58;6.72;;;14.60;68.50;;;;;;1040397;28;20022;-72
2021/01/11 02:21:22;;;;;;;14.23;6.30;;;14.50;68.50;;;;;;1039835;28;20009;-72
2021/01/11 02:22:09;;;;;;;14.52;7.07;;;14.60;68.50;;;;;;1028752;28;20031;-72
2021/01/11 02:23:11;;;;;;;17.20;6.80;;;14.60;68.50;;;;;;1030809;28;20566;-72
2021/01/11 02:24:28;;;;;;;16.45;7.30;;;14.60;68.60;;;;;;1040043;28;20120;-72
2021/01/11 02:25:30;;;;;;;18.02;7.40;;;14.60;68.60;;;;;;1043444;28;20505;-73
2021/01/11 02:26:24;;;;;;;19.20;7.38;;;14.60;68.80;;;;;;1044491;28;20040;-72
2021/01/11 02:27:16;;;;;;;24.00;10.25;;;14.60;68.70;;;;;;1035354;28;20037;-73
2021/01/11 02:27:53;;;;;;;17.25;8.10;;;14.60;68.70;;;;;;1037154;28;20084;-72
2021/01/11 02:28:35;;;;;;;16.13;7.70;;;14.60;69.20;;;;;;1041907;28;20025;-72
2021/01/11 02:29:21;;;;;;;18.08;7.38;;;14.60;68.60;;;;;;1041892;28;20013;-71
2021/01/11 02:30:12;;;;;;;14.35;6.47;;;14.60;68.70;;;;;;1047188;28;20470;-72
2021/01/11 02:30:47;;;;;;;18.02;7.40;;;14.60;68.90;;;;;;1043085;28;20147;-72
2021/01/11 02:31:22;;;;;;;14.80;7.15;;;14.60;69.00;;;;;;1042864;28;20497;-72
2021/01/11 02:31:56;;;;;;;15.93;6.80;;;14.50;68.90;;;;;;1042780;28;20107;-72
2021/01/11 02:32:30;;;;;;;16.08;7.22;;;14.60;69.00;;;;;;1042951;28;20023;-72
2021/01/11 02:33:07;;;;;;;17.40;7.75;;;14.60;69.20;;;;;;1042750;28;20486;-72
2021/01/11 02:33:39;;;;;;;15.25;7.22;;;14.50;69.20;;;;;;1044274;28;20013;-72
2021/01/11 02:34:12;;;;;;;15.85;7.22;;;14.50;69.30;;;;;;1042596;28;20021;-73
2021/01/11 02:34:45;;;;;;;17.10;7.72;;;14.50;69.30;;;;;;1042083;28;20115;-74
2021/01/11 02:35:19;;;;;;;17.50;7.43;;;14.50;69.30;;;;;;1041527;28;20392;-72
2021/01/11 02:35:50;;;;;;;17.08;7.55;;;14.50;69.30;;;;;;1044597;28;20013;-72
2021/01/11 02:36:22;;;;;;;15.05;7.03;;;14.50;69.30;;;;;;1044947;28;20054;-72
2021/01/11 02:36:54;;;;;;;14.27;7.10;;;14.50;69.40;;;;;;1044139;28;20024;-74
2021/01/11 02:37:26;;;;;;;15.30;7.55;;;14.50;69.50;;;;;;1043632;28;20088;-72
2021/01/11 02:37:59;;;;;;;17.42;8.13;;;14.50;69.60;;;;;;1043691;28;20005;-72
2021/01/11 02:38:31;;;;;;;18.95;8.23;;;14.50;69.60;;;;;;1042960;28;20041;-72
2021/01/11 02:39:03;;;;;;;17.88;9.40;;;14.50;69.70;;;;;;1045413;28;20017;-72
2021/01/11 02:39:34;;;;;;;17.38;8.95;;;14.50;69.70;;;;;;1046078;28;20089;-72
2021/01/11 02:40:08;;;;;;;17.83;7.97;;;14.50;69.60;;;;;;1048101;28;20017;-71
2021/01/11 02:40:40;;;;;;;21.45;8.13;;;14.50;69.70;;;;;;1046336;28;20021;-73
2021/01/11 02:41:11;;;;;;;16.00;8.13;;;14.50;69.80;;;;;;1047821;28;20013;-72
2021/01/11 02:41:43;;;;;;;17.02;8.35;;;14.50;69.90;;;;;;1046149;28;20493;-72
2021/01/11 02:42:14;;;;;;;14.88;8.05;;;14.50;69.90;;;;;;1048033;28;20139;-72
2021/01/11 02:42:45;;;;;;;16.02;8.43;;;14.50;69.80;;;;;;1044289;28;20017;-72
2021/01/11 02:43:17;;;;;;;16.10;8.60;;;14.50;69.80;;;;;;1040577;28;20020;-72
2021/01/11 02:43:49;;;;;;;19.35;8.10;;;14.50;69.70;;;;;;1045012;28;20067;-72
2021/01/11 02:44:20;;;;;;;19.27;8.60;;;14.60;69.70;;;;;;1048834;28;20019;-73
2021/01/11 02:44:52;;;;;;;15.10;8.15;;;14.60;69.60;;;;;;1048716;28;20032;-72
2021/01/11 02:45:23;;;;;;;17.88;8.52;;;14.60;69.60;;;;;;1043609;28;20422;-72
2021/01/11 02:45:54;;;;;;;16.40;8.20;;;14.60;69.60;;;;;;1044637;28;20051;-72
2021/01/11 02:46:28;;;;;;;18.00;8.65;;;14.60;69.50;;;;;;1044841;28;20385;-72
2021/01/11 02:47:00;;;;;;;17.05;8.57;;;14.60;69.40;;;;;;1041754;28;20421;-72
2021/01/11 02:48:03;;;;;;;18.67;9.50;;;14.60;69.40;;;;;;1041269;28;20467;-72
2021/01/11 02:48:36;;;;;;;17.38;8.95;;;14.70;69.40;;;;;;1045038;28;20024;-72
2021/01/11 02:49:26;;;;;;;16.20;7.68;;;14.70;69.20;;;;;;1044503;28;20382;-72
2021/01/11 02:50:00;;;;;;;23.08;10.93;;;14.70;69.30;;;;;;1038683;28;20017;-72
2021/01/11 02:50:48;;;;;;;15.23;8.95;;;14.70;69.30;;;;;;1036194;28;20375;-72
2021/01/11 02:51:41;;;;;;;17.50;8.70;;;14.70;69.40;;;;;;1032741;28;20037;-72
2021/01/11 02:52:23;;;;;;;19.08;7.70;;;14.70;69.50;;;;;;1038350;28;20352;-72
2021/01/11 02:53:19;;;;;;;19.38;7.85;;;14.60;69.70;;;;;;1040651;28;20017;-72
2021/01/11 02:54:17;;;;;;;15.48;7.13;;;14.60;69.90;;;;;;1041188;28;20029;-72
2021/01/11 02:55:32;;;;;;;17.15;7.88;;;14.60;70.10;;;;;;1044296;28;20103;-72
2021/01/11 02:56:06;;;;;;;16.95;6.90;;;14.60;70.30;;;;;;1032181;28;20062;-74